Weather at Hockenheim Airport

Public forecast

Using degrees Celsius for public forecast. Weather courtesy of forecast.io.

Closest aviation weather report (METAR) to Hockenheim Airport

Closest report is Mannheim-City Airport, 8.9 nm (16.5 km) N. Retrieved 2020/09/26 12:20 UTC (0 seconds ago):

EDFM 261220Z 24011KT 210V270 9999 BKN019 12/07 Q0999

Closest aviation forecast (TAF) to Hockenheim Airport

Forecast is more than 12 hours old.

Closest forecast is Mannheim-City Airport, 8.9 nm (16.5 km) N. Retrieved 2012/03/06 06:30 UTC (9 years ago):

TAF EDFM 060519Z 0606/0621 15004KT 9999 FEW040